Urbion-Ventrosa, Spain
Current Conditions -  °F | °C
As of 7:00 PM on Friday 21 Nov 2014 (Local Time) from LELO Reporting Station
Broken Clouds Broken Clouds  
Wind Chill: 54°   Ceiling: 1300
Heat Index: 54°   Visibility: 6mi
Dew Point: 52°   Wind: 6mph
Humidity: 94%   Direction: 60°ENE
Pressure: 30.03"   Gusts: NA
Location:  42.15°N, 2.85°W
Report Text: LELO 211800Z 06005KT 020V100 9999 BKN013 12/11 Q1017
Loading
Personal Weather Stations






























Interactive Weather Map New forecast layout! Learn more

10-Day Weather Forecast

Advertisements
Track Severe Weather on mobile